createdAt,value
2018-02-21T00:00:12.442Z,1017.10
2018-02-21T00:00:50.023Z,1017.13
2018-02-21T00:01:25.733Z,1017.17
2018-02-21T00:02:02.522Z,1017.17
2018-02-21T00:02:38.062Z,1017.18
2018-02-21T00:03:13.656Z,1017.20
2018-02-21T00:03:48.941Z,1017.22
2018-02-21T00:04:24.239Z,1017.20
2018-02-21T00:04:59.599Z,1017.20
2018-02-21T00:05:35.208Z,1017.22
2018-02-21T00:06:10.873Z,1017.21
2018-02-21T00:06:46.453Z,1017.21
2018-02-21T00:07:21.750Z,1017.22
2018-02-21T00:07:57.431Z,1017.19
2018-02-21T00:08:32.648Z,1017.19
2018-02-21T00:09:07.945Z,1017.10
2018-02-21T00:09:43.521Z,1017.13
2018-02-21T00:10:18.844Z,1017.10
2018-02-21T00:10:54.216Z,1017.09
2018-02-21T00:11:29.503Z,1017.08
2018-02-21T00:12:04.612Z,1017.02
2018-02-21T00:12:40.029Z,1017.00
2018-02-21T00:13:15.819Z,1016.98
2018-02-21T00:13:51.410Z,1016.97
2018-02-21T00:14:26.909Z,1016.94
2018-02-21T00:15:02.511Z,1016.96
2018-02-21T00:15:38.992Z,1016.92
2018-02-21T00:16:14.594Z,1016.96
2018-02-21T00:16:51.097Z,1016.97
2018-02-21T00:17:26.489Z,1016.98
2018-02-21T00:18:02.033Z,1016.98
2018-02-21T00:18:37.319Z,1016.98
2018-02-21T00:19:12.635Z,1017.00
2018-02-21T00:19:47.807Z,1017.03
2018-02-21T00:20:23.098Z,1017.02
2018-02-21T00:20:58.598Z,1017.06
2018-02-21T00:21:34.311Z,1017.10
2018-02-21T00:22:09.307Z,1017.10
2018-02-21T00:22:46.614Z,1017.15
2018-02-21T00:23:22.001Z,1017.14
2018-02-21T00:23:57.468Z,1017.15
2018-02-21T00:24:32.791Z,1017.16
2018-02-21T00:25:07.971Z,1017.19
2018-02-21T00:25:43.652Z,1017.18
2018-02-21T00:26:18.934Z,1017.17
2018-02-21T00:26:54.195Z,1017.16
2018-02-21T00:27:29.490Z,1017.15
2018-02-21T00:28:04.715Z,1017.16
2018-02-21T00:28:40.273Z,1017.12
2018-02-21T00:29:15.992Z,1017.12
2018-02-21T00:29:51.277Z,1017.11
2018-02-21T00:30:26.471Z,1017.07
2018-02-21T00:31:03.560Z,1017.04
2018-02-21T00:31:38.877Z,1017.04
2018-02-21T00:32:14.242Z,1017.01
2018-02-21T00:32:51.843Z,1017.00
2018-02-21T00:33:26.825Z,1016.95
2018-02-21T00:34:02.222Z,1016.97
2018-02-21T00:34:37.607Z,1017.00
2018-02-21T00:35:13.131Z,1016.92
2018-02-21T00:35:50.022Z,1016.94
2018-02-21T00:36:26.709Z,1016.92
2018-02-21T00:37:02.289Z,1016.94
2018-02-21T00:37:37.571Z,1016.91
2018-02-21T00:38:13.212Z,1016.96
2018-02-21T00:38:48.495Z,1016.98
2018-02-21T00:39:23.795Z,1016.96
2018-02-21T00:39:58.885Z,1016.99
2018-02-21T00:40:34.288Z,1017.03
2018-02-21T00:41:09.797Z,1017.04
2018-02-21T00:41:45.473Z,1017.03
2018-02-21T00:42:20.773Z,1017.05
2018-02-21T00:42:56.793Z,1017.05
2018-02-21T00:43:32.404Z,1017.06
2018-02-21T00:44:07.613Z,1017.08
2018-02-21T00:44:42.567Z,1017.07
2018-02-21T00:45:17.878Z,1017.09
2018-02-21T00:45:52.969Z,1017.10
2018-02-21T00:46:28.479Z,1017.11
2018-02-21T00:47:03.981Z,1017.10
2018-02-21T00:47:39.362Z,1017.13
2018-02-21T00:48:14.682Z,1017.14
2018-02-21T00:48:50.926Z,1017.13
2018-02-21T00:49:26.029Z,1017.20
2018-02-21T00:50:01.539Z,1017.19
2018-02-21T00:50:37.319Z,1017.16
2018-02-21T00:51:15.139Z,1017.19
2018-02-21T00:51:50.310Z,1017.22
2018-02-21T00:52:25.917Z,1017.21
2018-02-21T00:53:01.344Z,1017.23
2018-02-21T00:53:36.954Z,1017.22
2018-02-21T00:54:12.277Z,1017.19
2018-02-21T00:54:47.355Z,1017.18
2018-02-21T00:55:22.574Z,1017.19
2018-02-21T00:55:57.654Z,1017.13
2018-02-21T00:56:33.201Z,1017.16
2018-02-21T00:57:08.602Z,1017.12
2018-02-21T00:57:44.083Z,1017.14
2018-02-21T00:58:19.529Z,1017.12
2018-02-21T00:58:54.821Z,1017.13
2018-02-21T00:59:30.331Z,1017.11
2018-02-21T01:00:06.024Z,1017.07
2018-02-21T01:00:44.622Z,1017.10
2018-02-21T01:01:20.037Z,1017.07
2018-02-21T01:01:55.333Z,1017.09
2018-02-21T01:02:30.632Z,1017.05
2018-02-21T01:03:05.982Z,1017.09
2018-02-21T01:03:41.508Z,1017.05
2018-02-21T01:04:16.726Z,1017.09
2018-02-21T01:04:52.331Z,1017.10
2018-02-21T01:05:27.815Z,1017.09
2018-02-21T01:06:03.115Z,1017.12
2018-02-21T01:06:39.388Z,1017.09
2018-02-21T01:07:14.492Z,1017.13
2018-02-21T01:07:49.998Z,1017.12
2018-02-21T01:08:25.118Z,1017.12
2018-02-21T01:09:00.694Z,1017.17
2018-02-21T01:09:36.696Z,1017.16
2018-02-21T01:10:12.104Z,1017.15
2018-02-21T01:10:49.174Z,1017.15
2018-02-21T01:11:24.771Z,1017.12
2018-02-21T01:11:59.758Z,1017.16
2018-02-21T01:12:34.952Z,1017.15
2018-02-21T01:13:10.480Z,1017.15
2018-02-21T01:13:48.249Z,1017.14
2018-02-21T01:14:23.473Z,1017.10
2018-02-21T01:14:58.964Z,1017.10
2018-02-21T01:15:34.060Z,1017.12
2018-02-21T01:16:09.363Z,1017.12
2018-02-21T01:16:51.166Z,1017.08
2018-02-21T01:17:26.766Z,1017.06
2018-02-21T01:18:03.204Z,1017.07
2018-02-21T01:18:39.921Z,1017.05
2018-02-21T01:19:15.299Z,1017.07
2018-02-21T01:19:50.777Z,1017.04
2018-02-21T01:20:26.145Z,1017.05
2018-02-21T01:21:01.756Z,1017.02
2018-02-21T01:21:37.684Z,1017.02
2018-02-21T01:22:13.287Z,1017.00
2018-02-21T01:22:48.697Z,1017.01
2018-02-21T01:23:24.240Z,1016.96
2018-02-21T01:24:01.232Z,1016.99
2018-02-21T01:24:37.054Z,1016.93
2018-02-21T01:25:13.868Z,1016.94
2018-02-21T01:25:48.977Z,1016.98
2018-02-21T01:26:24.100Z,1016.96
2018-02-21T01:26:59.500Z,1016.94
2018-02-21T01:27:34.697Z,1016.93
2018-02-21T01:28:10.033Z,1016.87
2018-02-21T01:28:45.682Z,1016.96
2018-02-21T01:29:20.998Z,1016.94
2018-02-21T01:29:56.316Z,1016.92
2018-02-21T01:30:31.730Z,1016.93
2018-02-21T01:31:07.068Z,1016.95
2018-02-21T01:31:45.260Z,1016.95
2018-02-21T01:32:20.658Z,1016.90
2018-02-21T01:32:55.974Z,1016.93
2018-02-21T01:33:31.327Z,1016.97
2018-02-21T01:34:07.062Z,1016.93
2018-02-21T01:34:42.463Z,1016.89
2018-02-21T01:35:17.601Z,1016.91
2018-02-21T01:35:53.808Z,1016.95
2018-02-21T01:36:32.244Z,1016.93
2018-02-21T01:37:07.687Z,1016.93
2018-02-21T01:37:42.797Z,1016.90
2018-02-21T01:38:18.101Z,1016.93
2018-02-21T01:38:53.395Z,1016.92
2018-02-21T01:39:28.805Z,1016.85
2018-02-21T01:40:04.216Z,1016.87
2018-02-21T01:40:42.172Z,1016.88
2018-02-21T01:41:17.588Z,1016.78
2018-02-21T01:41:52.803Z,1016.83
2018-02-21T01:42:28.351Z,1016.81
2018-02-21T01:43:03.781Z,1016.82
2018-02-21T01:43:38.883Z,1016.77
2018-02-21T01:44:14.304Z,1016.77
2018-02-21T01:44:49.691Z,1016.84
2018-02-21T01:45:24.993Z,1016.82
2018-02-21T01:46:01.527Z,1016.84
2018-02-21T01:46:37.343Z,1016.87
2018-02-21T01:47:12.557Z,1016.92
2018-02-21T01:47:48.758Z,1016.96
2018-02-21T01:48:24.288Z,1016.98
2018-02-21T01:48:59.703Z,1017.01
2018-02-21T01:49:35.734Z,1017.07
2018-02-21T01:50:11.229Z,1017.07
2018-02-21T01:50:46.857Z,1017.10
2018-02-21T01:51:22.433Z,1017.13
2018-02-21T01:51:57.627Z,1017.17
2018-02-21T01:52:33.234Z,1017.17
2018-02-21T01:53:08.462Z,1017.19
2018-02-21T01:53:44.078Z,1017.15
2018-02-21T01:54:19.485Z,1017.18
2018-02-21T01:54:55.188Z,1017.19
2018-02-21T01:55:30.340Z,1017.12
2018-02-21T01:56:05.662Z,1017.16
2018-02-21T01:56:41.059Z,1017.13
2018-02-21T01:57:16.890Z,1017.11
2018-02-21T01:57:55.870Z,1017.11
2018-02-21T01:58:30.990Z,1017.07
2018-02-21T01:59:08.746Z,1017.04
2018-02-21T01:59:44.228Z,1017.01
2018-02-21T02:00:19.469Z,1017.00
2018-02-21T02:00:55.247Z,1017.03
2018-02-21T02:01:30.777Z,1017.00
2018-02-21T02:02:06.139Z,1017.02
2018-02-21T02:02:43.302Z,1017.00
2018-02-21T02:03:18.633Z,1016.98
2018-02-21T02:03:55.256Z,1017.00
2018-02-21T02:04:30.702Z,1017.02
2018-02-21T02:05:05.959Z,1016.97
2018-02-21T02:05:42.961Z,1017.03
2018-02-21T02:06:18.492Z,1017.01
2018-02-21T02:06:53.933Z,1017.02
2018-02-21T02:07:29.373Z,1016.98
2018-02-21T02:08:04.792Z,1017.02
2018-02-21T02:08:41.286Z,1017.01
2018-02-21T02:09:16.680Z,1017.01
2018-02-21T02:09:52.111Z,1017.00
2018-02-21T02:10:27.531Z,1017.02
2018-02-21T02:11:02.941Z,1017.04
2018-02-21T02:11:38.551Z,1017.02
2018-02-21T02:12:14.095Z,1017.03
2018-02-21T02:12:49.303Z,1017.05
2018-02-21T02:13:24.502Z,1017.04
2018-02-21T02:14:00.216Z,1017.08
2018-02-21T02:14:35.887Z,1017.06
2018-02-21T02:15:11.249Z,1017.08
2018-02-21T02:15:46.735Z,1017.11
2018-02-21T02:16:23.256Z,1017.09
2018-02-21T02:16:58.658Z,1017.08
2018-02-21T02:17:34.200Z,1017.10
2018-02-21T02:18:09.520Z,1017.08
2018-02-21T02:18:46.218Z,1017.10
2018-02-21T02:19:21.545Z,1017.06
2018-02-21T02:19:56.951Z,1017.12
2018-02-21T02:20:32.340Z,1017.12
2018-02-21T02:21:07.533Z,1017.10
2018-02-21T02:21:42.913Z,1017.09
2018-02-21T02:22:18.430Z,1017.13
2018-02-21T02:22:53.623Z,1017.14
2018-02-21T02:23:28.931Z,1017.15
2018-02-21T02:24:04.359Z,1017.19
2018-02-21T02:24:40.258Z,1017.17
2018-02-21T02:25:15.687Z,1017.18
2018-02-21T02:25:54.894Z,1017.22
2018-02-21T02:26:29.980Z,1017.22
2018-02-21T02:27:05.491Z,1017.24
2018-02-21T02:27:42.405Z,1017.20
2018-02-21T02:28:17.511Z,1017.23
2018-02-21T02:28:52.692Z,1017.23
2018-02-21T02:29:28.233Z,1017.23
2018-02-21T02:30:03.460Z,1017.24
2018-02-21T02:30:42.288Z,1017.27
2018-02-21T02:31:17.848Z,1017.26
2018-02-21T02:31:53.121Z,1017.27
2018-02-21T02:32:28.241Z,1017.27
2018-02-21T02:33:04.954Z,1017.28
2018-02-21T02:33:40.932Z,1017.26
2018-02-21T02:34:16.544Z,1017.28
2018-02-21T02:34:52.079Z,1017.27
2018-02-21T02:35:27.508Z,1017.28
2018-02-21T02:36:02.938Z,1017.29
2018-02-21T02:36:39.287Z,1017.30
2018-02-21T02:37:14.415Z,1017.30
2018-02-21T02:37:51.218Z,1017.29
2018-02-21T02:38:26.760Z,1017.34
2018-02-21T02:39:02.478Z,1017.33
2018-02-21T02:39:38.062Z,1017.37
2018-02-21T02:40:13.491Z,1017.39
2018-02-21T02:40:50.917Z,1017.42
2018-02-21T02:41:26.597Z,1017.40
2018-02-21T02:42:01.936Z,1017.45
2018-02-21T02:42:37.154Z,1017.48
2018-02-21T02:43:14.074Z,1017.49
2018-02-21T02:43:49.482Z,1017.53
2018-02-21T02:44:25.234Z,1017.55
2018-02-21T02:45:00.743Z,1017.58
2018-02-21T02:45:36.372Z,1017.60
2018-02-21T02:46:13.786Z,1017.63
2018-02-21T02:46:49.112Z,1017.65
2018-02-21T02:47:24.748Z,1017.70
2018-02-21T02:48:00.065Z,1017.72
2018-02-21T02:48:35.492Z,1017.69
2018-02-21T02:49:11.225Z,1017.75
2018-02-21T02:49:46.512Z,1017.74
2018-02-21T02:50:21.950Z,1017.74
2018-02-21T02:50:59.993Z,1017.72
2018-02-21T02:51:35.659Z,1017.75
2018-02-21T02:52:11.456Z,1017.74
2018-02-21T02:52:48.340Z,1017.72
2018-02-21T02:53:23.766Z,1017.71
2018-02-21T02:53:59.142Z,1017.72
2018-02-21T02:54:34.971Z,1017.69
2018-02-21T02:55:10.277Z,1017.65
2018-02-21T02:55:45.709Z,1017.68
2018-02-21T02:56:21.136Z,1017.65
2018-02-21T02:56:56.748Z,1017.61
2018-02-21T02:57:32.306Z,1017.62
2018-02-21T02:58:07.618Z,1017.62
2018-02-21T02:58:43.100Z,1017.61
2018-02-21T02:59:18.500Z,1017.64
2018-02-21T02:59:53.709Z,1017.63
2018-02-21T03:00:29.559Z,1017.66
2018-02-21T03:01:06.983Z,1017.63
2018-02-21T03:01:42.693Z,1017.65
2018-02-21T03:02:18.027Z,1017.67
2018-02-21T03:02:53.363Z,1017.70
2018-02-21T03:03:28.675Z,1017.68
2018-02-21T03:04:04.007Z,1017.71
2018-02-21T03:04:39.789Z,1017.72
2018-02-21T03:05:15.930Z,1017.74
2018-02-21T03:05:54.131Z,1017.72
2018-02-21T03:06:29.358Z,1017.74
2018-02-21T03:07:04.403Z,1017.73
2018-02-21T03:07:39.814Z,1017.74
2018-02-21T03:08:15.347Z,1017.78
2018-02-21T03:08:50.685Z,1017.76
2018-02-21T03:09:32.917Z,1017.78
2018-02-21T03:10:09.256Z,1017.79
2018-02-21T03:10:47.640Z,1017.73
2018-02-21T03:11:23.866Z,1017.75
2018-02-21T03:12:01.245Z,1017.76
2018-02-21T03:12:36.474Z,1017.71
2018-02-21T03:13:12.583Z,1017.72
2018-02-21T03:13:48.036Z,1017.75
2018-02-21T03:14:23.562Z,1017.73
2018-02-21T03:14:59.089Z,1017.73
2018-02-21T03:15:34.304Z,1017.74
2018-02-21T03:16:09.718Z,1017.74
2018-02-21T03:16:45.000Z,1017.69
2018-02-21T03:17:20.123Z,1017.70
2018-02-21T03:17:55.919Z,1017.68
2018-02-21T03:18:30.975Z,1017.70
2018-02-21T03:19:06.227Z,1017.72
2018-02-21T03:19:42.828Z,1017.70
2018-02-21T03:20:18.461Z,1017.74
2018-02-21T03:20:57.173Z,1017.73
2018-02-21T03:21:32.486Z,1017.75
2018-02-21T03:22:07.912Z,1017.76
2018-02-21T03:22:43.241Z,1017.77
2018-02-21T03:23:18.551Z,1017.78
2018-02-21T03:23:55.866Z,1017.78
2018-02-21T03:24:31.561Z,1017.77
2018-02-21T03:25:06.798Z,1017.77
2018-02-21T03:25:45.911Z,1017.77
2018-02-21T03:26:21.123Z,1017.81
2018-02-21T03:26:57.214Z,1017.83
2018-02-21T03:27:32.430Z,1017.79
2018-02-21T03:28:07.537Z,1017.76
2018-02-21T03:28:43.344Z,1017.78
2018-02-21T03:29:18.452Z,1017.76
2018-02-21T03:29:53.664Z,1017.77
2018-02-21T03:30:28.691Z,1017.74
2018-02-21T03:31:04.030Z,1017.69
2018-02-21T03:31:39.452Z,1017.69
2018-02-21T03:32:14.872Z,1017.69
2018-02-21T03:32:52.616Z,1017.69
2018-02-21T03:33:27.831Z,1017.66
2018-02-21T03:34:03.652Z,1017.66
2018-02-21T03:34:39.098Z,1017.67
2018-02-21T03:35:14.711Z,1017.66
2018-02-21T03:35:50.200Z,1017.68
2018-02-21T03:36:25.550Z,1017.67
2018-02-21T03:37:01.054Z,1017.68
2018-02-21T03:37:36.765Z,1017.68
2018-02-21T03:38:12.183Z,1017.69
2018-02-21T03:38:47.872Z,1017.70
2018-02-21T03:39:23.622Z,1017.70
2018-02-21T03:39:59.004Z,1017.70
2018-02-21T03:40:34.243Z,1017.71
2018-02-21T03:41:09.658Z,1017.71
2018-02-21T03:41:46.669Z,1017.73
2018-02-21T03:42:22.207Z,1017.71
2018-02-21T03:42:58.622Z,1017.72
2018-02-21T03:43:33.950Z,1017.70
2018-02-21T03:44:09.404Z,1017.69
2018-02-21T03:44:44.896Z,1017.72
2018-02-21T03:45:20.540Z,1017.73
2018-02-21T03:45:55.954Z,1017.73
2018-02-21T03:46:31.383Z,1017.71
2018-02-21T03:47:06.917Z,1017.73
2018-02-21T03:47:42.318Z,1017.72
2018-02-21T03:48:17.618Z,1017.76
2018-02-21T03:48:53.291Z,1017.74
2018-02-21T03:49:28.506Z,1017.75
2018-02-21T03:50:03.578Z,1017.73
2018-02-21T03:50:40.578Z,1017.76
2018-02-21T03:51:15.891Z,1017.77
2018-02-21T03:51:51.117Z,1017.76
2018-02-21T03:52:26.347Z,1017.72
2018-02-21T03:53:02.177Z,1017.72
2018-02-21T03:53:37.914Z,1017.73
2018-02-21T03:54:13.125Z,1017.78
2018-02-21T03:54:48.545Z,1017.77
2018-02-21T03:55:24.061Z,1017.85
2018-02-21T03:56:03.089Z,1017.80
2018-02-21T03:56:38.337Z,1017.86
2018-02-21T03:57:13.739Z,1017.92
2018-02-21T03:57:50.790Z,1017.88
2018-02-21T03:58:26.083Z,1017.88
2018-02-21T03:59:01.664Z,1017.88
2018-02-21T03:59:37.269Z,1017.91
2018-02-21T04:00:12.583Z,1017.91
2018-02-21T04:00:54.521Z,1017.89
2018-02-21T04:01:31.425Z,1017.87
2018-02-21T04:02:06.657Z,1017.85
2018-02-21T04:02:41.661Z,1017.80
2018-02-21T04:03:20.080Z,1017.89
2018-02-21T04:03:56.979Z,1017.82
2018-02-21T04:04:32.393Z,1017.83
2018-02-21T04:05:07.662Z,1017.83
2018-02-21T04:05:43.272Z,1017.80
2018-02-21T04:06:18.520Z,1017.82
2018-02-21T04:06:54.001Z,1017.87
2018-02-21T04:07:29.339Z,1017.90
2018-02-21T04:08:04.760Z,1017.86
2018-02-21T04:08:40.479Z,1017.92
2018-02-21T04:09:15.770Z,1017.89
2018-02-21T04:09:51.092Z,1017.91
2018-02-21T04:10:26.348Z,1017.87
2018-02-21T04:11:01.730Z,1017.85
2018-02-21T04:11:37.167Z,1017.88
2018-02-21T04:12:12.493Z,1017.87
2018-02-21T04:12:47.931Z,1017.87
2018-02-21T04:13:23.361Z,1017.86
2018-02-21T04:13:58.955Z,1017.83
2018-02-21T04:14:36.672Z,1017.85
2018-02-21T04:15:12.381Z,1017.83
2018-02-21T04:15:48.105Z,1017.86
2018-02-21T04:16:23.958Z,1017.82
2018-02-21T04:16:59.075Z,1017.82
2018-02-21T04:17:34.396Z,1017.83
2018-02-21T04:18:09.835Z,1017.81
2018-02-21T04:18:45.140Z,1017.84
2018-02-21T04:19:20.380Z,1017.83
2018-02-21T04:19:55.863Z,1017.78
2018-02-21T04:20:31.294Z,1017.79
2018-02-21T04:21:06.713Z,1017.80
2018-02-21T04:21:43.935Z,1017.85
2018-02-21T04:22:19.459Z,1017.79
2018-02-21T04:22:54.656Z,1017.85
2018-02-21T04:23:30.193Z,1017.86
2018-02-21T04:24:05.991Z,1017.84
2018-02-21T04:24:41.425Z,1017.85
2018-02-21T04:25:17.619Z,1017.86
2018-02-21T04:25:56.225Z,1017.84
2018-02-21T04:26:31.673Z,1017.86
2018-02-21T04:27:07.371Z,1017.92
2018-02-21T04:27:43.187Z,1017.90
2018-02-21T04:28:18.422Z,1017.90
2018-02-21T04:28:54.020Z,1017.89
2018-02-21T04:29:29.356Z,1017.88
2018-02-21T04:30:04.340Z,1017.83
2018-02-21T04:30:41.458Z,1017.84
2018-02-21T04:31:17.064Z,1017.84
2018-02-21T04:31:53.415Z,1017.81
2018-02-21T04:32:28.872Z,1017.82
2018-02-21T04:33:05.068Z,1017.81
2018-02-21T04:33:41.631Z,1017.82
2018-02-21T04:34:17.013Z,1017.81
2018-02-21T04:34:52.434Z,1017.81
2018-02-21T04:35:27.879Z,1017.79
2018-02-21T04:36:04.191Z,1017.79
2018-02-21T04:36:39.912Z,1017.82
2018-02-21T04:37:15.339Z,1017.78
2018-02-21T04:37:50.687Z,1017.80
2018-02-21T04:38:25.911Z,1017.78
2018-02-21T04:39:01.152Z,1017.78
2018-02-21T04:39:36.803Z,1017.80
2018-02-21T04:40:12.085Z,1017.74
2018-02-21T04:40:48.640Z,1017.74
2018-02-21T04:41:24.685Z,1017.78
2018-02-21T04:42:00.263Z,1017.76
2018-02-21T04:42:36.001Z,1017.78
2018-02-21T04:43:11.418Z,1017.78
2018-02-21T04:43:47.137Z,1017.79
2018-02-21T04:44:23.196Z,1017.76
2018-02-21T04:45:01.799Z,1017.76
2018-02-21T04:45:38.810Z,1017.77
2018-02-21T04:46:14.306Z,1017.76
2018-02-21T04:46:49.722Z,1017.75
2018-02-21T04:47:25.129Z,1017.71
2018-02-21T04:48:01.400Z,1017.72
2018-02-21T04:48:36.741Z,1017.71
2018-02-21T04:49:12.228Z,1017.67
2018-02-21T04:49:48.968Z,1017.71
2018-02-21T04:50:24.182Z,1017.70
2018-02-21T04:50:59.369Z,1017.66
2018-02-21T04:51:34.807Z,1017.64
2018-02-21T04:52:10.210Z,1017.66
2018-02-21T04:52:47.958Z,1017.66
2018-02-21T04:53:23.407Z,1017.67
2018-02-21T04:53:59.010Z,1017.68
2018-02-21T04:54:34.443Z,1017.66
2018-02-21T04:55:09.759Z,1017.66
2018-02-21T04:55:45.260Z,1017.68
2018-02-21T04:56:20.980Z,1017.70
2018-02-21T04:56:56.279Z,1017.70
2018-02-21T04:57:31.804Z,1017.72
2018-02-21T04:58:07.330Z,1017.73
2018-02-21T04:58:44.028Z,1017.74
2018-02-21T04:59:19.254Z,1017.71
2018-02-21T04:59:54.591Z,1017.75
2018-02-21T05:00:29.951Z,1017.73
2018-02-21T05:01:05.344Z,1017.75
2018-02-21T05:01:40.671Z,1017.73
2018-02-21T05:02:16.161Z,1017.71
2018-02-21T05:02:51.395Z,1017.73
2018-02-21T05:03:26.698Z,1017.69
2018-02-21T05:04:02.702Z,1017.67
2018-02-21T05:04:38.108Z,1017.67
2018-02-21T05:05:13.720Z,1017.65
2018-02-21T05:05:49.200Z,1017.66
2018-02-21T05:06:25.511Z,1017.66
2018-02-21T05:07:00.895Z,1017.62
2018-02-21T05:07:36.703Z,1017.63
2018-02-21T05:08:11.895Z,1017.67
2018-02-21T05:08:47.122Z,1017.65
2018-02-21T05:09:22.532Z,1017.66
2018-02-21T05:09:57.844Z,1017.66
2018-02-21T05:10:33.294Z,1017.64
2018-02-21T05:11:08.832Z,1017.65
2018-02-21T05:11:44.233Z,1017.64
2018-02-21T05:12:19.557Z,1017.62
2018-02-21T05:12:54.745Z,1017.65
2018-02-21T05:13:30.289Z,1017.64
2018-02-21T05:14:06.188Z,1017.64
2018-02-21T05:14:41.197Z,1017.62
2018-02-21T05:15:16.704Z,1017.64
2018-02-21T05:15:53.507Z,1017.66
2018-02-21T05:16:29.057Z,1017.67
2018-02-21T05:17:04.339Z,1017.67
2018-02-21T05:17:39.773Z,1017.71
2018-02-21T05:18:15.064Z,1017.70
2018-02-21T05:18:50.290Z,1017.69
2018-02-21T05:19:25.516Z,1017.70
2018-02-21T05:20:01.034Z,1017.70
2018-02-21T05:20:37.046Z,1017.71
2018-02-21T05:21:12.457Z,1017.74
2018-02-21T05:21:47.818Z,1017.73
2018-02-21T05:22:23.141Z,1017.71
2018-02-21T05:22:58.777Z,1017.72
2018-02-21T05:23:34.412Z,1017.71
2018-02-21T05:24:09.684Z,1017.72
2018-02-21T05:24:46.001Z,1017.72
2018-02-21T05:25:21.311Z,1017.69
2018-02-21T05:25:58.690Z,1017.65
2018-02-21T05:26:34.088Z,1017.68
2018-02-21T05:27:10.700Z,1017.66
2018-02-21T05:27:46.030Z,1017.66
2018-02-21T05:28:21.160Z,1017.64
2018-02-21T05:28:57.837Z,1017.70
2018-02-21T05:29:32.995Z,1017.66
2018-02-21T05:30:08.294Z,1017.62
2018-02-21T05:30:44.853Z,1017.66
2018-02-21T05:31:20.271Z,1017.62
2018-02-21T05:31:55.888Z,1017.63
2018-02-21T05:32:31.465Z,1017.66
2018-02-21T05:33:06.755Z,1017.67
2018-02-21T05:33:42.188Z,1017.69
2018-02-21T05:34:17.568Z,1017.65
2018-02-21T05:34:52.987Z,1017.66
2018-02-21T05:35:28.501Z,1017.72
2018-02-21T05:36:04.722Z,1017.68
2018-02-21T05:36:40.056Z,1017.66
2018-02-21T05:37:15.477Z,1017.68
2018-02-21T05:37:50.750Z,1017.71
2018-02-21T05:38:26.090Z,1017.69
2018-02-21T05:39:01.181Z,1017.73
2018-02-21T05:39:36.408Z,1017.73
2018-02-21T05:40:14.201Z,1017.73
2018-02-21T05:40:50.900Z,1017.76
2018-02-21T05:41:26.426Z,1017.78
2018-02-21T05:42:01.640Z,1017.82
2018-02-21T05:42:37.160Z,1017.84
2018-02-21T05:43:12.290Z,1017.84
2018-02-21T05:43:47.717Z,1017.87
2018-02-21T05:44:25.726Z,1017.92
2018-02-21T05:45:01.024Z,1017.94
2018-02-21T05:45:36.461Z,1017.94
2018-02-21T05:46:11.550Z,1017.97
2018-02-21T05:46:46.855Z,1018.01
2018-02-21T05:47:24.054Z,1017.98
2018-02-21T05:48:03.443Z,1018.01
2018-02-21T05:48:38.830Z,1018.00
2018-02-21T05:49:14.110Z,1018.01
2018-02-21T05:49:51.299Z,1018.05
2018-02-21T05:50:26.627Z,1018.03
2018-02-21T05:51:02.231Z,1018.05
2018-02-21T05:51:37.633Z,1018.02
2018-02-21T05:52:13.228Z,1018.06
2018-02-21T05:52:50.246Z,1018.09
2018-02-21T05:53:25.646Z,1018.09
2018-02-21T05:54:00.959Z,1018.07
2018-02-21T05:54:37.676Z,1018.08
2018-02-21T05:55:13.171Z,1018.11
2018-02-21T05:55:48.495Z,1018.16
2018-02-21T05:56:24.020Z,1018.14
2018-02-21T05:56:59.440Z,1018.14
2018-02-21T05:57:34.713Z,1018.13
2018-02-21T05:58:10.130Z,1018.17
2018-02-21T05:58:46.858Z,1018.13
2018-02-21T05:59:22.200Z,1018.11
2018-02-21T05:59:57.400Z,1018.12
2018-02-21T06:00:32.827Z,1018.12
2018-02-21T06:01:08.131Z,1018.10
2018-02-21T06:01:43.745Z,1018.08
2018-02-21T06:02:19.152Z,1018.09
2018-02-21T06:02:54.824Z,1018.09
2018-02-21T06:03:30.232Z,1018.06
2018-02-21T06:04:06.160Z,1018.07
2018-02-21T06:04:41.644Z,1018.07
2018-02-21T06:05:16.840Z,1018.11
2018-02-21T06:05:52.285Z,1018.15
2018-02-21T06:06:27.912Z,1018.15
2018-02-21T06:07:03.296Z,1018.16
2018-02-21T06:07:39.588Z,1018.21
2018-02-21T06:08:14.788Z,1018.24
2018-02-21T06:08:50.296Z,1018.29
2018-02-21T06:09:25.798Z,1018.32
2018-02-21T06:10:01.323Z,1018.35
2018-02-21T06:10:37.392Z,1018.34
2018-02-21T06:11:12.741Z,1018.36
2018-02-21T06:11:51.876Z,1018.32
2018-02-21T06:12:27.637Z,1018.32
2018-02-21T06:13:06.180Z,1018.32
2018-02-21T06:13:41.415Z,1018.34
2018-02-21T06:16:55.999Z,1018.34
2018-02-21T06:17:31.426Z,1018.36
2018-02-21T06:18:11.228Z,1018.34
2018-02-21T06:20:49.015Z,1018.41
2018-02-21T06:21:24.701Z,1018.39
2018-02-21T06:21:59.989Z,1018.44
2018-02-21T06:22:35.115Z,1018.45
2018-02-21T06:23:11.007Z,1018.45
2018-02-21T06:23:46.318Z,1018.49
2018-02-21T06:24:21.648Z,1018.51
2018-02-21T06:24:58.864Z,1018.52
2018-02-21T06:25:38.451Z,1018.54
2018-02-21T06:26:14.072Z,1018.54
2018-02-21T06:26:49.692Z,1018.52
2018-02-21T06:27:24.803Z,1018.52
2018-02-21T06:28:00.062Z,1018.54
2018-02-21T06:28:35.766Z,1018.54
2018-02-21T06:29:10.951Z,1018.55
2018-02-21T06:29:46.475Z,1018.54
2018-02-21T06:30:21.905Z,1018.58
2018-02-21T06:30:58.517Z,1018.57
2018-02-21T06:31:34.281Z,1018.58
2018-02-21T06:32:09.758Z,1018.57
2018-02-21T06:32:44.958Z,1018.59
2018-02-21T06:33:20.376Z,1018.59
2018-02-21T06:33:55.470Z,1018.63
2018-02-21T06:34:31.188Z,1018.60
2018-02-21T06:35:06.684Z,1018.58
2018-02-21T06:35:42.747Z,1018.60
2018-02-21T06:36:17.960Z,1018.62
2018-02-21T06:36:53.286Z,1018.60
2018-02-21T06:37:28.585Z,1018.55
2018-02-21T06:38:04.096Z,1018.57
2018-02-21T06:38:39.482Z,1018.55
2018-02-21T06:39:14.992Z,1018.49
2018-02-21T06:39:50.411Z,1018.53
2018-02-21T06:40:26.141Z,1018.51
2018-02-21T06:41:01.563Z,1018.52
2018-02-21T06:41:36.932Z,1018.45
2018-02-21T06:42:12.545Z,1018.43
2018-02-21T06:42:48.285Z,1018.43
2018-02-21T06:43:23.944Z,1018.42
2018-02-21T06:43:59.000Z,1018.42
2018-02-21T06:44:34.550Z,1018.39
2018-02-21T06:45:13.275Z,1018.37
2018-02-21T06:45:50.147Z,1018.34
2018-02-21T06:46:25.493Z,1018.37
2018-02-21T06:47:00.945Z,1018.32
2018-02-21T06:47:36.442Z,1018.30
2018-02-21T06:48:11.823Z,1018.37
2018-02-21T06:48:47.265Z,1018.34
2018-02-21T06:49:22.442Z,1018.34
2018-02-21T06:49:58.131Z,1018.35
2018-02-21T06:50:33.645Z,1018.31
2018-02-21T06:51:09.346Z,1018.31
2018-02-21T06:51:45.141Z,1018.32
2018-02-21T06:52:20.805Z,1018.29
2018-02-21T06:52:56.288Z,1018.24
2018-02-21T06:53:31.726Z,1018.29
2018-02-21T06:54:07.060Z,1018.26
2018-02-21T06:54:42.384Z,1018.26
2018-02-21T06:55:18.044Z,1018.21
2018-02-21T06:55:53.291Z,1018.24
2018-02-21T06:56:28.947Z,1018.23
2018-02-21T06:57:04.672Z,1018.20
2018-02-21T06:57:41.411Z,1018.21
2018-02-21T06:58:17.020Z,1018.19
2018-02-21T06:58:52.520Z,1018.21
2018-02-21T06:59:27.972Z,1018.22
2018-02-21T07:00:03.532Z,1018.25
2018-02-21T07:00:41.164Z,1018.28
2018-02-21T07:01:16.761Z,1018.28
2018-02-21T07:01:52.291Z,1018.33
2018-02-21T07:02:27.766Z,1018.33
2018-02-21T07:03:03.290Z,1018.31
2018-02-21T07:03:38.625Z,1018.33
2018-02-21T07:04:13.931Z,1018.34
2018-02-21T07:04:49.587Z,1018.38
2018-02-21T07:05:25.264Z,1018.36
2018-02-21T07:06:00.587Z,1018.40
2018-02-21T07:06:36.407Z,1018.38
2018-02-21T07:07:11.804Z,1018.34
2018-02-21T07:07:47.202Z,1018.37
2018-02-21T07:08:22.825Z,1018.35
2018-02-21T07:08:57.972Z,1018.35
2018-02-21T07:09:33.077Z,1018.35
2018-02-21T07:10:08.328Z,1018.34
2018-02-21T07:10:44.294Z,1018.32
2018-02-21T07:11:19.635Z,1018.31
2018-02-21T07:11:55.147Z,1018.35
2018-02-21T07:12:30.902Z,1018.36
2018-02-21T07:13:06.237Z,1018.34
2018-02-21T07:13:41.735Z,1018.35
2018-02-21T07:14:17.221Z,1018.39
2018-02-21T07:14:53.159Z,1018.39
2018-02-21T07:15:28.929Z,1018.40
2018-02-21T07:16:04.178Z,1018.42
2018-02-21T07:16:39.617Z,1018.44